Time;durP1;ratioP1;P1;durP2;ratioP2;P2;SDS_P1;SDS_P2;PMS_P1;PMS_P2;Temp;Humidity;BMP_temperature;BMP_pressure;BME280_temperature;BME280_humidity;BME280_pressure;Samples;Min_cycle;Max_cycle;Signal;HPM_P1;HPM_P2
2022/06/19 00:02:05;;;;;;;2.58;1.63;;;;;;;31.39;38.89;100503.34;4937173;29;20393;-70
2022/06/19 00:04:31;;;;;;;3.30;1.40;;;;;;;31.33;38.81;100485.03;4952859;29;20027;-69
2022/06/19 00:06:57;;;;;;;2.85;1.13;;;;;;;31.27;38.78;100486.13;4954156;29;20051;-69
2022/06/19 00:09:24;;;;;;;2.42;1.33;;;;;;;31.21;38.61;100486.41;4937004;29;20038;-70
2022/06/19 00:11:49;;;;;;;2.35;1.35;;;;;;;31.13;39.10;100473.91;4937253;29;20441;-70
2022/06/19 00:14:15;;;;;;;3.75;1.33;;;;;;;31.04;38.44;100461.75;4954010;29;20111;-70
2022/06/19 00:16:41;;;;;;;3.00;1.23;;;;;;;30.95;38.65;100455.06;4921032;29;20169;-69
2022/06/19 00:19:06;;;;;;;3.60;1.30;;;;;;;30.93;38.54;100458.09;4954278;29;20023;-70
2022/06/19 00:21:31;;;;;;;2.20;1.13;;;;;;;30.90;39.08;100449.50;4953906;29;20037;-70
2022/06/19 00:23:57;;;;;;;1.95;1.00;;;;;;;30.85;38.77;100438.41;4952794;29;20054;-69
2022/06/19 00:26:22;;;;;;;4.15;1.33;;;;;;;30.77;38.37;100436.16;4953849;29;20042;-70
2022/06/19 00:28:48;;;;;;;2.47;1.00;;;;;;;30.72;38.78;100439.75;4953961;29;20159;-70
2022/06/19 00:31:14;;;;;;;2.45;1.15;;;;;;;30.68;38.86;100437.78;4954125;28;20412;-70
2022/06/19 00:33:39;;;;;;;1.55;0.88;;;;;;;30.65;38.08;100432.81;4956903;29;20413;-70
2022/06/19 00:36:05;;;;;;;2.33;1.00;;;;;;;30.58;38.33;100422.81;4957504;29;20027;-69
2022/06/19 00:38:31;;;;;;;2.75;1.17;;;;;;;30.55;38.76;100422.53;4956310;29;20031;-70
2022/06/19 00:40:57;;;;;;;3.38;0.82;;;;;;;30.50;38.39;100425.28;4940367;29;20031;-70
2022/06/19 00:43:23;;;;;;;1.42;0.80;;;;;;;30.46;38.42;100419.44;4940461;29;20027;-70
2022/06/19 00:45:51;;;;;;;2.75;1.73;;;;;;;30.41;38.72;100405.59;4940271;29;20031;-70
2022/06/19 00:48:33;;;;;;;2.42;1.20;;;;;;;30.36;38.44;100408.31;4957412;29;20485;-69
2022/06/19 00:51:02;;;;;;;2.13;1.08;;;;;;;30.30;39.09;100409.38;4957264;29;20118;-69
2022/06/19 00:53:45;;;;;;;3.72;0.90;;;;;;;30.27;38.71;100392.50;4957224;29;20123;-70
2022/06/19 00:56:14;;;;;;;3.13;0.95;;;;;;;30.21;38.93;100393.59;4957188;28;20511;-69
2022/06/19 00:58:40;;;;;;;4.57;1.27;;;;;;;30.18;38.49;100394.94;4940089;29;20039;-69
2022/06/19 01:01:14;;;;;;;5.88;1.00;;;;;;;30.13;38.64;100396.84;4956985;29;20552;-70
2022/06/19 01:04:17;;;;;;;2.00;1.10;;;;;;;30.08;39.49;100405.94;4957213;29;20433;-69
2022/06/19 01:06:42;;;;;;;5.63;1.30;;;;;;;30.02;39.42;100421.66;4957096;29;20094;-69
2022/06/19 01:09:07;;;;;;;3.08;1.00;;;;;;;29.97;39.30;100426.34;4939943;29;20114;-70
2022/06/19 01:11:36;;;;;;;2.33;1.17;;;;;;;29.92;38.91;100418.00;4957300;29;20043;-70
2022/06/19 01:14:02;;;;;;;1.65;0.95;;;;;;;29.89;38.57;100424.06;4956832;29;20042;-70
2022/06/19 01:16:28;;;;;;;3.05;1.00;;;;;;;29.86;39.30;100408.03;4956946;29;20074;-70
2022/06/19 01:18:53;;;;;;;6.18;1.00;;;;;;;29.82;39.02;100398.59;4957040;29;20523;-69
2022/06/19 01:21:43;;;;;;;1.83;0.90;;;;;;;29.79;39.48;100401.84;4956636;29;20028;-70
2022/06/19 01:24:22;;;;;;;5.80;1.55;;;;;;;29.72;39.40;100412.31;4956497;29;20069;-69
2022/06/19 01:26:51;;;;;;;1.88;1.20;;;;;;;29.74;39.39;100421.16;4957079;29;20033;-69
2022/06/19 01:29:19;;;;;;;0.75;0.70;;;;;;;29.69;39.79;100423.88;4939811;29;20519;-70
2022/06/19 01:31:51;;;;;;;1.35;0.75;;;;;;;29.61;38.84;100418.84;4956905;28;20027;-71
2022/06/19 01:34:48;;;;;;;1.25;1.05;;;;;;;29.55;39.15;100428.19;4956689;29;20036;-70
2022/06/19 01:37:24;;;;;;;2.50;0.68;;;;;;;29.45;39.30;100424.22;4944443;29;20552;-70
2022/06/19 01:40:06;;;;;;;2.90;0.75;;;;;;;29.39;39.80;100419.78;4939737;29;20027;-69
2022/06/19 01:42:31;;;;;;;4.93;0.90;;;;;;;29.28;39.56;100417.19;4956915;29;20114;-68
2022/06/19 01:44:57;;;;;;;2.03;1.00;;;;;;;29.22;39.65;100434.78;4956649;28;20132;-70
2022/06/19 01:47:23;;;;;;;2.03;1.00;;;;;;;29.15;39.39;100434.97;4956755;29;20042;-70
2022/06/19 01:49:51;;;;;;;2.33;0.75;;;;;;;29.10;39.67;100432.16;4956877;29;20382;-70
2022/06/19 01:52:18;;;;;;;2.45;0.85;;;;;;;29.01;39.03;100439.22;4939381;29;20054;-70
2022/06/19 01:54:50;;;;;;;3.30;1.00;;;;;;;28.94;39.21;100448.81;4956850;28;20037;-70
2022/06/19 01:57:16;;;;;;;0.95;0.80;;;;;;;28.87;39.46;100465.53;4955438;29;20120;-70
2022/06/19 01:59:42;;;;;;;4.10;1.17;;;;;;;28.82;39.60;100523.41;4956262;29;20102;-70
2022/06/19 02:02:10;;;;;;;4.40;0.73;;;;;;;28.77;38.65;100592.28;4939839;29;20027;-70
2022/06/19 02:04:35;;;;;;;3.90;0.82;;;;;;;28.70;38.80;100553.84;4956785;29;20541;-70
2022/06/19 02:07:04;;;;;;;3.85;1.25;;;;;;;28.61;39.57;100461.63;4956647;29;20055;-70
2022/06/19 02:09:29;;;;;;;6.78;1.30;;;;;;;28.52;38.47;100467.84;4956881;29;20031;-70
2022/06/19 02:11:55;;;;;;;5.25;1.77;;;;;;;28.44;39.19;100571.09;4956475;29;20028;-70
2022/06/19 02:14:21;;;;;;;4.65;0.90;;;;;;;28.31;38.96;100552.13;4939252;29;20098;-70
2022/06/19 02:16:48;;;;;;;9.00;1.50;;;;;;;28.19;38.74;100486.13;4956264;29;20027;-70
2022/06/19 02:19:14;;;;;;;8.13;1.30;;;;;;;28.09;38.79;100485.97;4955689;29;20031;-70
2022/06/19 02:21:45;;;;;;;3.67;1.02;;;;;;;27.97;39.47;100562.31;4956376;29;20096;-70
2022/06/19 02:24:14;;;;;;;2.95;1.25;;;;;;;27.90;38.87;100541.53;4954743;29;20109;-70
2022/06/19 02:26:40;;;;;;;6.30;0.90;;;;;;;27.83;38.82;100464.59;4954725;29;20583;-70
2022/06/19 02:29:09;;;;;;;4.63;0.90;;;;;;;27.76;39.03;100469.44;4954983;29;20034;-70
2022/06/19 02:31:36;;;;;;;3.75;1.15;;;;;;;27.67;38.43;100581.03;4956174;29;20034;-70
2022/06/19 02:34:08;;;;;;;9.10;2.65;;;;;;;27.55;38.68;100544.50;4954335;29;20027;-70
2022/06/19 02:36:36;;;;;;;7.47;1.88;;;;;;;27.44;38.71;100526.13;4955689;29;20089;-70
2022/06/19 02:39:18;;;;;;;5.93;2.03;;;;;;;27.33;38.37;100615.03;4955578;29;20401;-70
2022/06/19 02:41:54;;;;;;;41.72;3.38;;;;;;;27.20;38.39;100552.84;4938549;29;20039;-71
2022/06/19 02:44:20;;;;;;;14.88;1.67;;;;;;;27.10;38.66;100585.66;4954426;29;20555;-69
2022/06/19 02:46:45;;;;;;;8.93;1.55;;;;;;;26.99;38.64;100612.13;4955443;29;20031;-70
2022/06/19 02:49:10;;;;;;;8.43;1.88;;;;;;;26.89;38.16;100584.38;4955351;29;20031;-69
2022/06/19 02:51:36;;;;;;;4.82;1.02;;;;;;;26.80;38.35;100579.53;4955223;29;20033;-70
2022/06/19 02:54:01;;;;;;;8.57;2.05;;;;;;;26.68;38.42;100609.72;4938272;28;20027;-70
2022/06/19 02:56:26;;;;;;;13.27;1.83;;;;;;;26.58;38.43;100601.22;4954914;28;20038;-70
2022/06/19 02:58:52;;;;;;;6.72;1.20;;;;;;;26.48;38.04;100614.75;4955179;29;20054;-70
2022/06/19 03:01:17;;;;;;;8.73;1.38;;;;;;;26.43;38.05;100603.63;4938054;29;20055;-71
2022/06/19 03:03:43;;;;;;;9.27;1.33;;;;;;;26.42;37.97;100632.16;4954908;29;20027;-70
2022/06/19 03:06:08;;;;;;;7.95;1.85;;;;;;;26.40;38.12;100624.19;4955385;29;20503;-70
2022/06/19 03:08:33;;;;;;;5.90;0.95;;;;;;;26.33;38.41;100650.91;4955229;29;20042;-70
2022/06/19 03:10:59;;;;;;;9.13;1.33;;;;;;;26.30;38.07;100636.84;4955570;29;20031;-70
2022/06/19 03:13:25;;;;;;;4.80;1.38;;;;;;;26.28;38.21;100647.19;4939211;29;20038;-69
2022/06/19 03:16:02;;;;;;;4.82;1.27;;;;;;;26.27;37.73;100651.84;4956443;29;20020;-70
2022/06/19 03:18:28;;;;;;;11.65;1.83;;;;;;;26.24;38.05;100679.81;4956531;29;20031;-70
2022/06/19 03:20:53;;;;;;;7.38;2.30;;;;;;;26.24;38.02;100674.31;4956246;29;20028;-70
2022/06/19 03:23:19;;;;;;;10.40;1.33;;;;;;;26.20;37.60;100705.22;4956349;29;20036;-69
2022/06/19 03:25:44;;;;;;;8.00;1.20;;;;;;;26.16;37.55;100696.59;4956257;29;20027;-70
2022/06/19 03:28:09;;;;;;;4.95;1.35;;;;;;;26.15;37.32;100703.19;4955905;29;20029;-70
2022/06/19 03:30:35;;;;;;;4.22;1.08;;;;;;;26.13;38.55;100709.97;4955806;29;20023;-70
2022/06/19 03:33:00;;;;;;;9.70;2.65;;;;;;;26.08;37.32;100709.78;4955891;29;20038;-70
2022/06/19 03:35:25;;;;;;;8.45;1.15;;;;;;;26.02;37.28;100715.16;4956084;29;20027;-70
2022/06/19 03:37:51;;;;;;;8.00;1.40;;;;;;;26.01;37.54;100719.00;4955975;29;20031;-70
2022/06/19 03:40:16;;;;;;;9.60;1.38;;;;;;;26.00;36.96;100710.97;4938182;29;20027;-70
2022/06/19 03:42:41;;;;;;;5.20;1.23;;;;;;;25.96;37.11;100704.28;4938688;29;20028;-70
2022/06/19 03:45:07;;;;;;;4.00;1.48;;;;;;;25.93;36.77;100700.09;4955893;29;20098;-69
2022/06/19 03:47:33;;;;;;;9.20;1.00;;;;;;;25.90;37.12;100667.63;4955845;29;20061;-70
2022/06/19 03:50:00;;;;;;;3.47;1.40;;;;;;;25.85;36.46;100675.69;4954576;29;20034;-70
2022/06/19 03:52:25;;;;;;;7.10;1.65;;;;;;;25.82;36.41;100665.22;4955700;29;20034;-70
2022/06/19 03:54:50;;;;;;;4.95;1.00;;;;;;;25.74;36.39;100661.94;4955684;28;20035;-70
2022/06/19 03:57:16;;;;;;;7.22;1.10;;;;;;;25.67;36.48;100667.53;4938459;29;20111;-70
2022/06/19 03:59:41;;;;;;;10.68;1.65;;;;;;;25.61;36.48;100673.94;4955088;29;20094;-70
2022/06/19 04:02:09;;;;;;;4.03;0.90;;;;;;;25.59;36.00;100687.03;4955327;29;20023;-70
2022/06/19 04:04:42;;;;;;;6.32;1.10;;;;;;;25.54;36.07;100689.66;4955483;29;20024;-70
2022/06/19 04:07:08;;;;;;;;;;;;;;;25.50;36.51;100671.13;4956520;28;20027;-69
2022/06/19 04:09:34;;;;;;;6.28;1.30;;;;;;;25.49;36.29;100675.75;4942284;29;19917;-70
2022/06/19 04:11:59;;;;;;;7.63;1.35;;;;;;;25.53;36.17;100666.00;4959311;29;20107;-70
2022/06/19 04:14:25;;;;;;;3.00;1.10;;;;;;;25.58;36.19;100685.38;4959407;29;20030;-69
2022/06/19 04:16:50;;;;;;;5.82;1.58;;;;;;;25.63;35.68;100688.25;4958789;29;20031;-70
2022/06/19 04:19:16;;;;;;;1.95;0.63;;;;;;;25.68;35.75;100710.38;4942166;29;20034;-70
2022/06/19 04:21:43;;;;;;;3.45;0.80;;;;;;;25.73;35.47;100743.44;4959352;29;20104;-70
2022/06/19 04:24:11;;;;;;;4.28;0.63;;;;;;;25.77;35.29;100802.28;4959234;29;20031;-70
2022/06/19 04:26:37;;;;;;;5.68;0.95;;;;;;;25.82;35.27;100775.00;4958218;29;20055;-70
2022/06/19 04:29:04;;;;;;;6.10;1.45;;;;;;;25.85;35.09;100689.41;4958044;29;20027;-70
2022/06/19 04:31:29;;;;;;;5.55;1.05;;;;;;;25.90;35.18;100684.09;4959048;29;20158;-69
2022/06/19 04:33:55;;;;;;;5.68;0.98;;;;;;;25.95;34.48;100716.31;4959365;29;20058;-70
2022/06/19 04:36:24;;;;;;;3.30;0.95;;;;;;;25.96;34.69;100710.59;4958945;29;20034;-70
2022/06/19 04:38:50;;;;;;;8.02;1.58;;;;;;;25.99;34.79;100682.66;4958935;29;20031;-70
2022/06/19 04:41:22;;;;;;;6.40;1.08;;;;;;;26.03;34.31;100678.41;4958949;29;20043;-70
2022/06/19 04:43:50;;;;;;;8.70;0.98;;;;;;;26.10;34.19;100688.47;4959056;29;20392;-70
2022/06/19 04:46:15;;;;;;;5.28;0.88;;;;;;;26.14;34.07;100684.19;4959086;29;20370;-70
2022/06/19 04:48:41;;;;;;;9.27;1.30;;;;;;;26.19;33.94;100671.44;4958589;29;20038;-70
2022/06/19 04:51:06;;;;;;;6.18;1.73;;;;;;;26.24;33.85;100670.75;4941463;29;20031;-69
2022/06/19 04:53:34;;;;;;;5.82;0.90;;;;;;;26.29;33.95;100660.72;4958564;29;20027;-70
2022/06/19 04:56:01;;;;;;;5.95;0.90;;;;;;;26.34;33.65;100660.00;4958502;28;20030;-70
2022/06/19 04:58:29;;;;;;;3.53;1.15;;;;;;;26.39;33.14;100651.88;4958626;29;20071;-70
2022/06/19 05:00:55;;;;;;;9.75;1.45;;;;;;;26.40;33.20;100634.34;4925924;29;20038;-70
2022/06/19 05:03:21;;;;;;;3.75;0.70;;;;;;;26.40;32.85;100631.59;4958917;29;20031;-70
2022/06/19 05:05:47;;;;;;;4.18;0.80;;;;;;;26.45;33.59;100642.69;4959124;29;20023;-70
2022/06/19 05:08:13;;;;;;;6.82;1.33;;;;;;;26.48;32.84;100644.97;4958473;29;20397;-70
2022/06/19 05:10:39;;;;;;;6.93;0.77;;;;;;;26.53;32.70;100645.94;4957319;29;20031;-70
2022/06/19 05:13:06;;;;;;;8.05;1.02;;;;;;;26.50;32.55;100651.06;4940807;29;20038;-70
2022/06/19 05:15:34;;;;;;;6.65;0.82;;;;;;;26.46;32.35;100622.41;4958169;29;20473;-70
2022/06/19 05:18:00;;;;;;;10.70;1.45;;;;;;;26.48;32.41;100625.72;4957792;28;20023;-70
2022/06/19 05:20:25;;;;;;;7.05;0.88;;;;;;;26.51;31.95;100614.28;4957842;29;20038;-69
2022/06/19 05:22:51;;;;;;;8.98;1.25;;;;;;;26.45;32.23;100604.22;4958011;29;20066;-70
2022/06/19 05:25:16;;;;;;;5.70;0.93;;;;;;;26.37;31.70;100602.69;4957926;29;20031;-69
2022/06/19 05:27:42;;;;;;;4.05;0.90;;;;;;;26.35;31.89;100595.75;4958056;29;20031;-70
2022/06/19 05:30:08;;;;;;;6.90;0.80;;;;;;;26.30;32.17;100584.66;4940502;29;20023;-70
2022/06/19 05:32:34;;;;;;;7.15;1.10;;;;;;;26.25;32.04;100581.75;4956217;29;20023;-70
2022/06/19 05:34:59;;;;;;;8.65;1.20;;;;;;;26.21;31.90;100562.19;4940669;29;20042;-70
2022/06/19 05:37:25;;;;;;;6.03;1.25;;;;;;;26.22;32.06;100571.25;4957676;29;20027;-70
2022/06/19 05:39:50;;;;;;;6.85;0.70;;;;;;;26.20;31.80;100598.13;4957658;29;20034;-69
2022/06/19 05:42:16;;;;;;;7.35;1.33;;;;;;;26.19;31.74;100583.53;4940181;29;20031;-70
2022/06/19 05:44:41;;;;;;;2.25;0.75;;;;;;;26.18;31.98;100581.03;4940528;29;20031;-70
2022/06/19 05:47:07;;;;;;;2.13;0.70;;;;;;;26.26;31.70;100573.28;4957589;29;20110;-70
2022/06/19 05:49:34;;;;;;;6.15;0.90;;;;;;;26.37;32.00;100564.22;4957602;29;20026;-70
2022/06/19 05:52:00;;;;;;;7.95;0.88;;;;;;;26.49;31.99;100575.22;4957686;29;20396;-70
2022/06/19 05:54:28;;;;;;;3.67;1.33;;;;;;;26.59;31.60;100589.16;4957460;28;20043;-70
2022/06/19 05:56:54;;;;;;;6.57;0.80;;;;;;;26.80;31.39;100610.56;4957382;29;20469;-70
2022/06/19 05:59:19;;;;;;;4.45;1.17;;;;;;;27.01;31.68;100603.63;4957184;29;20061;-69
2022/06/19 06:01:45;;;;;;;5.15;0.80;;;;;;;27.14;31.81;100603.34;4957215;29;20137;-69
2022/06/19 06:04:10;;;;;;;6.82;0.90;;;;;;;27.07;31.16;100577.91;4939835;29;20027;-69
2022/06/19 06:06:35;;;;;;;7.05;1.38;;;;;;;26.91;31.84;100593.22;4964862;28;20093;-69
2022/06/19 06:09:01;;;;;;;3.63;1.00;;;;;;;26.85;31.84;100599.72;4976387;28;20022;-69
2022/06/19 06:11:26;;;;;;;3.72;0.82;;;;;;;26.80;31.57;100629.00;4958140;28;20046;-70
2022/06/19 06:13:52;;;;;;;8.38;2.28;;;;;;;26.80;32.14;100671.06;4976287;28;20023;-70
2022/06/19 06:16:19;;;;;;;7.45;1.60;;;;;;;27.00;31.86;100668.78;4976140;28;20027;-70
2022/06/19 06:18:45;;;;;;;6.53;1.52;;;;;;;27.34;30.89;100657.97;4976259;28;20023;-69
2022/06/19 06:21:20;;;;;;;6.90;1.70;;;;;;;27.42;31.04;100643.84;4976376;28;20030;-69
2022/06/19 06:23:46;;;;;;;5.18;0.93;;;;;;;27.37;31.53;100651.97;4976640;28;20590;-69
2022/06/19 06:26:13;;;;;;;7.30;1.05;;;;;;;27.40;31.15;100657.81;4976386;28;20117;-70
2022/06/19 06:28:42;;;;;;;7.90;1.25;;;;;;;27.57;30.90;100677.19;4975759;28;20109;-69
2022/06/19 06:31:08;;;;;;;6.60;1.23;;;;;;;27.81;31.86;100722.84;4957099;28;20018;-70
2022/06/19 06:33:34;;;;;;;3.95;0.77;;;;;;;28.04;31.35;100791.66;4975082;28;20393;-70
2022/06/19 06:35:59;;;;;;;4.00;1.15;;;;;;;28.09;31.50;100910.19;4975627;28;20070;-61
2022/06/19 06:38:25;;;;;;;6.35;1.40;;;;;;;28.18;31.54;100941.81;4975612;28;20110;-67
2022/06/19 06:40:51;;;;;;;6.40;2.00;;;;;;;28.21;32.20;100924.81;4974392;28;20026;-68
2022/06/19 06:43:18;;;;;;;5.10;0.90;;;;;;;28.18;30.97;100985.06;4974381;28;20473;-67
2022/06/19 06:45:43;;;;;;;6.45;0.93;;;;;;;28.12;31.04;100986.88;4975471;28;20050;-62
2022/06/19 06:48:09;;;;;;;14.05;0.80;;;;;;;28.11;31.83;100981.59;4975462;28;20121;-61
2022/06/19 06:50:34;;;;;;;6.28;1.23;;;;;;;28.16;31.64;100944.00;4975659;28;20512;-62
2022/06/19 06:53:00;;;;;;;5.22;1.75;;;;;;;28.36;31.71;100938.09;4974569;28;20035;-62
2022/06/19 06:55:25;;;;;;;6.43;1.10;;;;;;;28.47;31.51;100950.16;4958121;28;20122;-61
2022/06/19 06:57:51;;;;;;;7.00;1.52;;;;;;;28.58;30.49;100946.53;4974991;28;20054;-62
2022/06/19 07:00:21;;;;;;;5.80;0.80;;;;;;;28.66;30.20;100940.66;4975151;28;20365;-62
2022/06/19 07:02:46;;;;;;;5.20;1.40;;;;;;;28.75;30.85;100941.94;4975206;28;20057;-62
2022/06/19 07:05:12;;;;;;;3.70;1.00;;;;;;;28.87;30.71;100939.97;4975355;28;20489;-62
2022/06/19 07:07:38;;;;;;;6.28;1.83;;;;;;;28.94;29.76;100918.59;4975119;28;20436;-62
2022/06/19 07:10:03;;;;;;;6.10;0.90;;;;;;;29.02;30.59;100943.03;4975057;28;20039;-62
2022/06/19 07:12:29;;;;;;;9.32;1.30;;;;;;;29.04;30.71;100935.31;4975345;28;20510;-61
2022/06/19 07:14:54;;;;;;;4.10;0.77;;;;;;;29.21;29.28;100908.59;4974980;28;20030;-62
2022/06/19 07:17:19;;;;;;;7.35;1.42;;;;;;;29.43;29.96;100909.56;4975081;28;20054;-62
2022/06/19 07:19:45;;;;;;;7.47;1.38;;;;;;;29.60;29.45;100903.19;4974823;28;20051;-62
2022/06/19 07:22:12;;;;;;;6.32;1.20;;;;;;;29.88;28.78;100887.34;4975191;28;20039;-63
2022/06/19 07:24:37;;;;;;;5.15;0.90;;;;;;;30.21;28.50;100896.66;4975099;28;20030;-62
2022/06/19 07:27:03;;;;;;;2.78;0.90;;;;;;;30.47;28.39;100880.16;4974837;28;20373;-64
2022/06/19 07:29:29;;;;;;;6.78;1.50;;;;;;;30.71;28.07;100857.72;4975000;28;20085;-63
2022/06/19 07:31:54;;;;;;;4.95;0.98;;;;;;;30.92;28.16;100848.53;4974717;28;20035;-63
2022/06/19 07:34:20;;;;;;;4.03;1.27;;;;;;;30.81;28.33;100849.53;4975051;28;20062;-63
2022/06/19 07:36:45;;;;;;;3.38;0.80;;;;;;;30.77;28.13;100857.50;4974801;28;20568;-62
2022/06/19 07:39:10;;;;;;;10.48;1.08;;;;;;;30.76;27.73;100850.31;4974938;28;20491;-62
2022/06/19 07:41:36;;;;;;;5.45;0.90;;;;;;;30.84;27.74;100869.22;4974489;28;20113;-63
2022/06/19 07:44:01;;;;;;;4.00;1.10;;;;;;;30.92;28.13;100890.03;4974921;28;20457;-62
2022/06/19 07:46:27;;;;;;;6.93;1.65;;;;;;;30.93;27.88;100897.28;4974690;28;20038;-62
2022/06/19 07:51:36;;;;;;;5.28;1.45;;;;;;;30.88;27.70;100930.38;4974449;28;20030;-63
2022/06/19 07:54:02;;;;;;;3.10;0.93;;;;;;;30.83;28.17;100922.03;4974451;28;20027;-60
2022/06/19 07:56:28;;;;;;;3.72;0.95;;;;;;;30.73;27.85;100916.38;4974488;28;20436;-61
2022/06/19 07:58:53;;;;;;;6.75;1.30;;;;;;;30.60;27.59;100922.34;4974259;28;20085;-61
2022/06/19 08:01:19;;;;;;;4.40;1.02;;;;;;;30.42;28.34;100910.50;4974688;28;20129;-63
2022/06/19 08:03:44;;;;;;;3.72;0.57;;;;;;;30.30;28.57;100886.81;4974453;28;20023;-60
2022/06/19 08:06:13;;;;;;;3.53;0.63;;;;;;;30.31;28.24;100869.13;4974422;28;20027;-61
2022/06/19 08:08:39;;;;;;;6.13;0.75;;;;;;;30.46;28.21;100856.34;4974434;28;20026;-62
2022/06/19 08:11:04;;;;;;;3.78;0.73;;;;;;;30.58;27.59;100862.56;4974354;28;20034;-64
2022/06/19 08:13:33;;;;;;;5.00;0.65;;;;;;;30.64;27.35;100844.09;4974392;28;20393;-61
2022/06/19 08:16:02;;;;;;;5.35;0.98;;;;;;;30.66;27.35;100852.13;4974422;28;20074;-62
2022/06/19 08:18:28;;;;;;;9.07;1.13;;;;;;;30.56;27.94;100839.88;4957051;28;20480;-62
2022/06/19 08:20:54;;;;;;;2.85;0.90;;;;;;;30.42;28.04;100843.31;4974519;28;20035;-63
2022/06/19 08:23:19;;;;;;;3.13;0.70;;;;;;;30.24;27.48;100830.63;4974453;28;20027;-62
2022/06/19 08:25:45;;;;;;;1.65;0.63;;;;;;;30.10;27.73;100840.38;4973093;28;20062;-61
2022/06/19 08:28:11;;;;;;;2.42;0.63;;;;;;;29.93;27.72;100817.50;4974303;28;20054;-61
2022/06/19 08:30:40;;;;;;;3.38;0.95;;;;;;;29.75;27.88;100818.63;4974405;28;20106;-61
2022/06/19 08:33:07;;;;;;;4.68;1.08;;;;;;;29.60;27.99;100793.56;4974377;28;20034;-62
2022/06/19 08:35:37;;;;;;;4.18;0.80;;;;;;;29.47;27.56;100817.94;4974350;28;20041;-61
2022/06/19 08:38:05;;;;;;;2.50;0.77;;;;;;;29.35;28.24;100816.13;4974214;28;20019;-61
2022/06/19 08:40:49;;;;;;;2.95;1.20;;;;;;;29.21;27.90;100813.91;4956957;28;20102;-61
2022/06/19 08:43:38;;;;;;;3.92;0.70;;;;;;;29.05;28.81;100821.13;4974036;28;20023;-61
2022/06/19 08:46:06;;;;;;;8.77;0.80;;;;;;;28.96;28.48;100828.13;4974033;28;20031;-62
2022/06/19 08:48:40;;;;;;;8.65;0.88;;;;;;;28.86;28.69;100827.97;4974060;28;20023;-61
2022/06/19 08:51:35;;;;;;;1.95;0.75;;;;;;;28.78;28.45;100837.47;4974084;28;20027;-60
2022/06/19 08:54:24;;;;;;;5.63;0.80;;;;;;;28.67;28.45;100856.88;4975984;28;20500;-62
2022/06/19 08:57:01;;;;;;;2.88;0.70;;;;;;;28.62;29.12;100853.94;4978022;28;20085;-63
2022/06/19 08:59:38;;;;;;;5.65;1.08;;;;;;;28.52;28.46;100835.31;4957664;29;20055;-63
2022/06/19 09:02:48;;;;;;;4.32;1.02;;;;;;;28.40;29.10;100819.91;4958584;28;20074;-62
2022/06/19 09:05:45;;;;;;;1.85;0.60;;;;;;;28.24;30.00;100800.31;4947127;28;20070;-62
2022/06/19 09:08:20;;;;;;;5.60;0.70;;;;;;;28.10;29.83;100843.03;4958560;28;20067;-63
2022/06/19 09:11:00;;;;;;;1.70;0.65;;;;;;;28.04;29.12;100862.44;4958611;28;20035;-62
2022/06/19 09:14:03;;;;;;;6.60;0.98;;;;;;;27.96;29.57;100855.34;4958535;29;20034;-62
2022/06/19 09:16:49;;;;;;;2.75;0.80;;;;;;;27.82;30.93;100853.09;4958378;28;20020;-62
2022/06/19 09:19:51;;;;;;;2.22;0.73;;;;;;;27.65;31.08;100785.00;4958312;28;20031;-62
2022/06/19 09:22:30;;;;;;;2.50;0.93;;;;;;;27.52;30.94;100778.94;4927400;28;20051;-63
2022/06/19 09:25:14;;;;;;;7.38;0.85;;;;;;;27.27;31.93;100673.78;4958357;28;20023;-63
2022/06/19 09:27:49;;;;;;;4.10;0.75;;;;;;;27.07;31.94;100658.50;4957913;29;20504;-62
2022/06/19 09:30:27;;;;;;;4.00;0.63;;;;;;;26.88;32.09;100558.00;4956998;29;20058;-63
2022/06/19 09:33:14;;;;;;;3.67;0.88;;;;;;;26.71;32.48;100642.25;4956896;29;20110;-63
2022/06/19 09:35:49;;;;;;;3.50;0.70;;;;;;;26.70;32.46;100769.75;4957650;28;20118;-63
2022/06/19 09:38:24;;;;;;;4.50;0.70;;;;;;;26.78;32.36;100706.19;4957634;28;20493;-62
2022/06/19 09:41:04;;;;;;;7.78;1.10;;;;;;;26.88;32.74;100647.88;4956170;29;20102;-62
2022/06/19 09:43:40;;;;;;;2.38;0.68;;;;;;;27.00;32.61;100712.78;4956259;29;20512;-63
2022/06/19 09:46:14;;;;;;;2.83;0.70;;;;;;;27.13;32.43;100766.72;4972317;28;20097;-63
2022/06/19 09:49:16;;;;;;;5.45;1.40;;;;;;;27.22;33.10;100791.97;4957347;28;20035;-63
2022/06/19 09:51:45;;;;;;;2.83;0.75;;;;;;;27.36;32.85;100757.63;4938972;28;20055;-63
2022/06/19 09:54:18;;;;;;;5.53;0.93;;;;;;;27.44;32.39;100727.00;4957558;28;20066;-63
2022/06/19 09:57:05;;;;;;;4.15;1.10;;;;;;;27.52;32.31;100759.66;4957504;28;20038;-64
2022/06/19 09:59:52;;;;;;;9.55;1.35;;;;;;;27.77;32.72;100771.22;4972178;28;20047;-63
2022/06/19 10:02:26;;;;;;;3.92;0.63;;;;;;;28.19;32.04;100767.16;4957573;28;20027;-63
2022/06/19 10:05:06;;;;;;;7.10;1.02;;;;;;;28.84;31.89;100780.47;4972162;28;20110;-63
2022/06/19 10:07:35;;;;;;;11.50;10.50;;;;;;;29.73;30.90;100773.03;4971637;28;20038;-63
2022/06/19 10:10:29;;;;;;;18.63;17.42;;;;;;;30.66;30.62;100777.44;4956887;28;20070;-63
2022/06/19 10:12:56;;;;;;;9.10;1.38;;;;;;;30.95;30.02;100776.06;4971952;28;20031;-63
2022/06/19 10:15:30;;;;;;;7.95;0.80;;;;;;;31.05;29.42;100770.59;4971720;28;20031;-63
2022/06/19 10:18:08;;;;;;;5.93;0.88;;;;;;;31.46;29.12;100777.28;4956813;28;20063;-69
2022/06/19 10:20:41;;;;;;;4.43;1.02;;;;;;;32.25;28.11;100776.00;4955725;29;20023;-70
2022/06/19 10:23:21;;;;;;;4.03;1.25;;;;;;;32.41;28.86;100765.78;4955731;29;20508;-69
2022/06/19 10:25:50;;;;;;;6.90;1.35;;;;;;;32.53;28.74;100766.34;4956771;28;20024;-69
2022/06/19 10:28:27;;;;;;;5.38;1.05;;;;;;;32.49;29.07;100790.22;4956717;29;20038;-69
2022/06/19 10:30:58;;;;;;;6.57;0.80;;;;;;;32.39;28.82;100803.19;4956569;28;20024;-69
2022/06/19 10:33:38;;;;;;;3.88;0.90;;;;;;;32.30;28.73;100780.75;4956787;28;20023;-69
2022/06/19 10:36:18;;;;;;;4.05;1.45;;;;;;;32.27;28.52;100767.41;4957075;28;20119;-69
2022/06/19 10:38:56;;;;;;;7.95;1.25;;;;;;;32.35;28.79;100758.56;4956614;28;20086;-69
2022/06/19 10:44:45;;;;;;;7.15;1.35;;;;;;;32.91;27.63;100733.66;4957000;29;20118;-69
2022/06/19 10:47:32;;;;;;;5.13;1.67;;;;;;;33.28;27.38;100712.75;4956669;29;20037;-70
2022/06/19 10:50:24;;;;;;;4.03;1.30;;;;;;;33.23;28.64;100720.28;4956953;29;20023;-67
2022/06/19 10:53:17;;;;;;;6.80;1.48;;;;;;;33.59;28.43;100741.31;4954819;29;20505;-67
2022/06/19 10:55:54;;;;;;;;;;;;;;;33.68;28.51;100745.19;4956874;28;20035;-68
2022/06/19 10:58:22;;;;;;;49.33;9.27;;;;;;;33.31;28.10;100755.81;4960133;28;20425;-68
2022/06/19 11:00:54;;;;;;;33.75;5.88;;;;;;;32.99;28.79;100755.28;4957801;28;20051;-68
2022/06/19 11:04:08;;;;;;;35.03;6.78;;;;;;;32.68;28.77;100769.16;4974072;28;20113;-67
2022/06/19 11:06:40;;;;;;;52.03;11.32;;;;;;;32.39;28.73;100798.50;4960820;28;20051;-66
2022/06/19 11:09:09;;;;;;;28.58;7.03;;;;;;;32.14;29.48;100803.97;4973932;28;20030;-70
2022/06/19 11:11:35;;;;;;;42.85;9.32;;;;;;;31.97;29.24;100806.91;4958111;28;20042;-70
2022/06/19 11:14:29;;;;;;;96.68;17.30;;;;;;;32.31;28.73;100800.97;4973928;28;20110;-71
2022/06/19 11:16:57;;;;;;;28.50;7.07;;;;;;;33.06;27.85;100819.72;4954372;28;20038;-70
2022/06/19 11:19:38;;;;;;;18.95;2.30;;;;;;;33.51;27.85;100825.22;4974973;28;20077;-69
2022/06/19 11:22:06;;;;;;;8.20;1.55;;;;;;;33.58;28.50;100827.75;4974845;28;20034;-70
2022/06/19 11:24:34;;;;;;;11.43;1.45;;;;;;;33.62;28.00;100849.13;4974990;28;20026;-68
2022/06/19 11:26:59;;;;;;;15.63;2.63;;;;;;;33.49;28.96;100844.13;4957595;28;20027;-68
2022/06/19 11:29:26;;;;;;;11.60;1.60;;;;;;;33.85;28.61;100844.91;4974724;28;20042;-68
2022/06/19 11:32:13;;;;;;;18.73;2.92;;;;;;;34.37;27.48;100845.28;4957559;28;20029;-69
2022/06/19 11:34:51;;;;;;;17.20;1.73;;;;;;;34.69;28.01;100850.44;4974791;28;20077;-69
2022/06/19 11:37:23;;;;;;;5.68;1.25;;;;;;;35.22;26.44;100856.19;4973781;28;20026;-68
2022/06/19 11:40:09;;;;;;;12.80;2.40;;;;;;;35.58;26.04;100851.97;4975135;28;20038;-70
2022/06/19 11:42:37;;;;;;;10.68;1.52;;;;;;;36.03;26.52;100819.97;4957413;28;20611;-65
2022/06/19 11:45:15;;;;;;;5.13;1.83;;;;;;;36.43;26.01;100810.22;4957226;28;20034;-63